Time;durP1;ratioP1;P1;durP2;ratioP2;P2;SDS_P1;SDS_P2;PMS_P1;PMS_P2;Temp;Humidity;BMP_temperature;BMP_pressure;BME280_temperature;BME280_humidity;BME280_pressure;Samples;Min_cycle;Max_cycle;Signal;HPM_P1;HPM_P2
2021/11/02 00:00:55;;;;;;;186.90;30.60;;;;;;;4.75;78.87;99648.66;5051947;28;20419;-62
2021/11/02 00:03:21;;;;;;;212.10;34.28;;;;;;;4.64;79.23;99651.81;5051006;28;20053;-61
2021/11/02 00:05:46;;;;;;;217.18;35.58;;;;;;;4.55;79.28;99652.97;5052438;28;20037;-62
2021/11/02 00:08:12;;;;;;;146.32;29.92;;;;;;;4.43;79.01;99642.19;5052052;28;20044;-62
2021/11/02 00:10:38;;;;;;;102.57;27.98;;;;;;;4.49;81.09;99644.03;5053515;28;20045;-61
2021/11/02 00:13:04;;;;;;;201.70;35.63;;;;;;;4.40;80.13;99639.16;5053406;28;20048;-63
2021/11/02 00:15:33;;;;;;;177.10;35.40;;;;;;;4.44;81.14;99638.59;5053615;28;20087;-63
2021/11/02 00:18:03;;;;;;;246.85;40.03;;;;;;;4.35;80.51;99639.69;5049265;28;20102;-62
2021/11/02 00:20:30;;;;;;;178.82;37.15;;;;;;;4.27;80.81;99639.88;5051704;28;20061;-62
2021/11/02 00:22:58;;;;;;;172.57;35.42;;;;;;;4.28;80.58;99631.78;5053041;28;20064;-61
2021/11/02 00:25:28;;;;;;;198.70;33.05;;;;;;;4.26;80.87;99632.97;5053336;28;20106;-62
2021/11/02 00:27:54;;;;;;;161.50;33.47;;;;;;;4.25;80.86;99634.78;5053314;28;20119;-62
2021/11/02 00:30:21;;;;;;;239.18;35.47;;;;;;;4.13;81.11;99630.25;5053650;28;20148;-62
2021/11/02 00:32:50;;;;;;;209.13;34.42;;;;;;;4.06;80.03;99630.22;5053648;28;20103;-62
2021/11/02 00:35:20;;;;;;;271.85;33.88;;;;;;;4.01;80.58;99632.56;5035926;28;20098;-62
2021/11/02 00:37:48;;;;;;;221.25;34.78;;;;;;;3.98;81.52;99633.75;5052150;28;20498;-61
2021/11/02 00:40:15;;;;;;;200.27;32.20;;;;;;;3.99;81.43;99630.13;5053556;28;20036;-61
2021/11/02 00:42:55;;;;;;;172.07;34.10;;;;;;;3.95;80.96;99620.22;5053560;28;20045;-62
2021/11/02 00:45:30;;;;;;;253.75;38.67;;;;;;;3.99;80.41;99621.47;5052011;28;20033;-61
2021/11/02 00:47:58;;;;;;;222.50;38.13;;;;;;;3.94;80.73;99614.16;5053315;28;20037;-61
2021/11/02 00:50:25;;;;;;;172.75;31.58;;;;;;;3.90;81.68;99623.41;5051807;28;20052;-62
2021/11/02 00:52:51;;;;;;;177.38;33.30;;;;;;;3.95;82.01;99617.59;5052083;28;20128;-62
2021/11/02 00:55:17;;;;;;;186.63;35.70;;;;;;;3.99;81.70;99622.25;5053393;28;20488;-62
2021/11/02 00:57:43;;;;;;;130.82;32.92;;;;;;;4.02;82.39;99619.25;5053261;28;20071;-62
2021/11/02 01:00:11;;;;;;;120.72;33.22;;;;;;;4.04;81.54;99622.50;5053210;28;20386;-62
2021/11/02 01:02:36;;;;;;;186.70;37.15;;;;;;;4.06;81.50;99624.97;5050932;28;20075;-61
2021/11/02 01:05:03;;;;;;;290.80;43.20;;;;;;;3.99;81.01;99626.69;5053209;28;20041;-64
2021/11/02 01:07:29;;;;;;;235.90;39.53;;;;;;;3.93;81.77;99630.06;5053048;28;20099;-63
2021/11/02 01:09:56;;;;;;;193.93;38.72;;;;;;;3.90;81.75;99628.63;5053105;28;20556;-61
2021/11/02 01:12:22;;;;;;;222.05;42.60;;;;;;;3.86;82.13;99620.34;5052767;28;20126;-62
2021/11/02 01:14:48;;;;;;;224.30;38.58;;;;;;;3.86;82.09;99620.34;5051557;28;20040;-61
2021/11/02 01:17:14;;;;;;;194.13;36.55;;;;;;;3.90;82.71;99617.34;5052574;28;20052;-63
2021/11/02 01:19:40;;;;;;;157.75;36.17;;;;;;;3.92;81.87;99624.03;5051080;28;20503;-60
2021/11/02 01:22:06;;;;;;;264.52;41.25;;;;;;;3.93;81.65;99624.84;5051495;28;20045;-61
2021/11/02 01:24:33;;;;;;;179.20;37.00;;;;;;;3.87;81.62;99629.81;5034694;28;20052;-60
2021/11/02 01:26:59;;;;;;;210.13;41.20;;;;;;;3.78;81.11;99615.22;5034954;28;20048;-62
2021/11/02 01:29:27;;;;;;;231.30;39.28;;;;;;;3.62;82.28;99611.03;5051158;28;20049;-62
2021/11/02 01:31:55;;;;;;;304.10;45.90;;;;;;;3.66;82.29;99634.25;5051118;28;20041;-61
2021/11/02 01:34:22;;;;;;;317.55;44.72;;;;;;;3.52;82.71;99617.56;5051292;28;20044;-62
2021/11/02 01:36:53;;;;;;;238.82;40.83;;;;;;;3.59;83.11;99628.97;5051064;28;20052;-62
2021/11/02 01:39:21;;;;;;;204.32;39.65;;;;;;;3.63;83.47;99630.19;5051014;28;20041;-61
2021/11/02 01:41:50;;;;;;;229.30;41.10;;;;;;;3.64;82.97;99627.38;5050861;28;20512;-62
2021/11/02 01:44:17;;;;;;;108.10;32.78;;;;;;;3.76;83.74;99619.81;5050810;28;20047;-61
2021/11/02 01:46:44;;;;;;;280.70;43.13;;;;;;;3.78;81.83;99630.16;5052357;28;20340;-62
2021/11/02 01:49:12;;;;;;;281.90;43.92;;;;;;;3.70;82.25;99631.06;5034079;28;20064;-61
2021/11/02 01:51:40;;;;;;;222.38;40.47;;;;;;;3.64;82.96;99632.63;5052137;28;20563;-61
2021/11/02 01:54:07;;;;;;;312.15;43.47;;;;;;;3.60;82.44;99639.25;5050581;28;20053;-61
2021/11/02 01:56:35;;;;;;;172.10;36.72;;;;;;;3.61;83.01;99630.38;5050635;28;20055;-61
2021/11/02 01:59:04;;;;;;;139.60;32.40;;;;;;;3.70;82.92;99635.50;5033972;28;20088;-61
2021/11/02 02:02:07;;;;;;;263.77;41.75;;;;;;;3.72;82.87;99636.94;5050814;28;20049;-61
2021/11/02 02:05:17;;;;;;;311.48;42.72;;;;;;;3.67;82.07;99633.25;5050639;28;20049;-62
2021/11/02 02:08:25;;;;;;;194.00;40.17;;;;;;;3.63;83.57;99630.19;5050441;28;20506;-61
2021/11/02 02:11:00;;;;;;;232.25;39.35;;;;;;;3.68;83.51;99637.50;5050519;28;20056;-61
2021/11/02 02:13:41;;;;;;;198.70;37.42;;;;;;;3.69;83.50;99633.88;5050466;28;20124;-62
2021/11/02 02:16:16;;;;;;;162.70;34.85;;;;;;;3.69;83.76;99632.06;5050536;28;20045;-61
2021/11/02 02:19:00;;;;;;;128.13;34.33;;;;;;;3.76;84.00;99635.56;5050367;28;20033;-61
2021/11/02 02:21:37;;;;;;;165.95;36.90;;;;;;;3.82;83.35;99629.59;5051407;28;20622;-61
2021/11/02 02:24:22;;;;;;;113.07;33.90;;;;;;;3.89;84.18;99629.66;5049612;28;20040;-62
2021/11/02 02:27:07;;;;;;;178.82;38.25;;;;;;;3.89;83.11;99631.47;5050502;28;20041;-62
2021/11/02 02:29:35;;;;;;;239.88;36.58;;;;;;;3.89;82.56;99634.09;5033936;28;20047;-61
2021/11/02 02:32:05;;;;;;;218.45;36.25;;;;;;;3.82;82.82;99626.13;5034370;28;20049;-61
2021/11/02 02:34:31;;;;;;;241.13;39.70;;;;;;;3.77;82.41;99631.16;5033619;28;20045;-62
2021/11/02 02:36:57;;;;;;;217.60;35.67;;;;;;;3.70;82.53;99630.25;5050348;28;20041;-61
2021/11/02 02:39:24;;;;;;;231.07;35.75;;;;;;;3.64;82.75;99632.63;5050093;28;20148;-60
2021/11/02 02:42:13;;;;;;;237.88;38.17;;;;;;;3.58;82.91;99628.13;5050025;28;20053;-60
2021/11/02 02:44:46;;;;;;;243.45;40.15;;;;;;;3.50;82.51;99627.44;5034267;28;20049;-59
2021/11/02 02:47:15;;;;;;;235.65;38.95;;;;;;;3.45;83.24;99628.00;5049935;28;20045;-60
2021/11/02 02:49:41;;;;;;;219.02;38.45;;;;;;;3.45;83.45;99630.63;5033604;28;20053;-62
2021/11/02 02:52:09;;;;;;;214.32;38.15;;;;;;;3.47;83.39;99625.19;5033513;28;20049;-62
2021/11/02 02:54:36;;;;;;;228.15;39.72;;;;;;;3.45;83.21;99635.06;5033630;28;20556;-61
2021/11/02 02:57:03;;;;;;;271.35;42.13;;;;;;;3.40;82.90;99625.91;5033655;28;20033;-61
2021/11/02 02:59:29;;;;;;;243.55;37.28;;;;;;;3.37;83.19;99626.28;5033213;28;20140;-62
2021/11/02 03:01:55;;;;;;;270.52;42.92;;;;;;;3.38;83.19;99637.56;5033526;28;20091;-62
2021/11/02 03:04:30;;;;;;;226.03;39.27;;;;;;;3.38;83.22;99632.34;5049958;28;20055;-61
2021/11/02 03:06:58;;;;;;;196.48;33.47;;;;;;;3.44;83.94;99617.69;5033965;28;20076;-61
2021/11/02 03:09:28;;;;;;;202.10;38.17;;;;;;;3.46;83.78;99627.00;5049731;28;20505;-61
2021/11/02 03:11:58;;;;;;;151.50;35.08;;;;;;;3.46;84.12;99624.38;5049812;28;20037;-62
2021/11/02 03:14:37;;;;;;;285.92;39.78;;;;;;;3.48;82.65;99621.56;5049853;28;20406;-61
2021/11/02 03:17:08;;;;;;;283.20;38.05;;;;;;;3.41;82.50;99624.94;5033934;28;20129;-60
2021/11/02 03:55:25;;;;;;;244.25;45.13;;;;;;;3.13;82.61;99631.84;5039013;28;20411;-62
2021/11/02 03:57:56;;;;;;;220.57;40.58;;;;;;;3.12;83.22;99636.28;5036473;28;20402;-62
2021/11/02 05:46:45;;;;;;;138.50;31.80;;;;;;;3.54;82.67;99647.03;5020221;28;20045;-62
2021/11/02 05:54:02;;;;;;;206.25;36.35;;;;;;;4.04;82.40;99655.81;5049182;28;20041;-63
2021/11/02 06:30:11;;;;;;;161.85;42.28;;;;;;;4.57;80.99;99669.34;5038740;28;20052;-64
2021/11/02 06:32:40;;;;;;;194.23;44.00;;;;;;;4.57;81.24;99664.09;5009587;28;20049;-62
2021/11/02 06:35:18;;;;;;;181.02;45.25;;;;;;;4.55;81.18;99673.97;5028815;28;20870;-63
2021/11/02 06:46:34;;;;;;;189.98;42.20;;;;;;;4.55;80.56;99661.66;5047830;28;20049;-62
2021/11/02 07:19:35;;;;;;;104.13;39.90;;;;;;;5.22;79.21;99688.31;5050525;28;20052;-62
2021/11/02 07:25:16;;;;;;;97.93;42.85;;;;;;;5.36;79.44;99683.94;5052193;28;20486;-62
2021/11/02 08:46:04;;;;;;;115.05;48.90;;;;;;;6.00;76.23;99707.25;5050839;28;20165;-63
2021/11/02 08:48:30;;;;;;;106.65;47.33;;;;;;;6.09;76.20;99698.16;5048499;28;20512;-63
2021/11/02 08:50:59;;;;;;;104.97;49.70;;;;;;;6.13;75.58;99691.47;5050462;28;20140;-63
2021/11/02 08:53:25;;;;;;;111.97;48.05;;;;;;;6.21;75.20;99700.19;5048681;28;20546;-65
2021/11/02 08:55:51;;;;;;;111.45;49.88;;;;;;;6.22;75.10;99697.34;5048469;28;20045;-61
2021/11/02 08:58:18;;;;;;;118.20;52.53;;;;;;;6.23;75.46;99687.63;5046944;28;20507;-62
2021/11/02 09:00:44;;;;;;;111.35;50.72;;;;;;;5.96;75.79;99657.84;5049233;28;20448;-62
2021/11/02 09:03:27;;;;;;;114.32;49.67;;;;;;;6.25;75.61;99694.31;5048780;28;20533;-63
2021/11/02 09:05:56;;;;;;;109.85;49.53;;;;;;;6.29;75.12;99698.16;5050466;28;20102;-61
2021/11/02 09:08:22;;;;;;;107.18;46.08;;;;;;;6.24;74.92;99694.53;5048296;28;20048;-65
2021/11/02 09:10:48;;;;;;;118.70;50.40;;;;;;;6.21;75.16;99692.31;5047606;28;20041;-64
2021/11/02 09:13:15;;;;;;;104.50;46.85;;;;;;;6.07;75.47;99681.75;5049192;28;20048;-62
2021/11/02 09:15:42;;;;;;;110.32;49.92;;;;;;;6.08;75.35;99693.06;5049064;28;20145;-63
2021/11/02 09:18:10;;;;;;;107.45;49.05;;;;;;;5.96;75.55;99702.56;5047864;28;20115;-62
2021/11/02 09:20:37;;;;;;;117.95;47.47;;;;;;;5.85;75.48;99694.22;5049181;28;20061;-63
2021/11/02 09:23:05;;;;;;;111.75;46.95;;;;;;;5.75;75.94;99683.25;5047476;28;20558;-61
2021/11/02 09:25:31;;;;;;;116.80;48.67;;;;;;;5.72;75.96;99688.13;5047051;28;20517;-61
2021/11/02 09:27:57;;;;;;;103.40;48.00;;;;;;;5.82;75.85;99686.72;5048749;28;20049;-63
2021/11/02 09:30:24;;;;;;;120.60;51.47;;;;;;;5.76;76.05;99686.69;5030485;28;20128;-62
2021/11/02 09:32:53;;;;;;;123.63;48.60;;;;;;;5.62;76.05;99688.50;5047048;28;20068;-63
2021/11/02 09:35:28;;;;;;;118.47;49.58;;;;;;;5.45;76.63;99682.78;5047735;28;20041;-62
2021/11/02 09:38:24;;;;;;;118.28;49.95;;;;;;;5.30;77.10;99682.91;5049302;28;20124;-63
2021/11/02 09:41:03;;;;;;;114.35;49.17;;;;;;;5.36;78.25;99683.94;5038446;28;20087;-64
2021/11/02 09:43:43;;;;;;;;;;;;;;;5.41;76.72;99677.09;5048846;28;20094;-61
2021/11/02 09:46:53;;;;;;;116.60;48.78;;;;;;;5.37;77.45;99683.75;5046146;28;19933;-63
2021/11/02 09:49:55;;;;;;;112.47;45.83;;;;;;;5.47;76.99;99689.47;5048511;28;20053;-64
2021/11/02 09:53:16;;;;;;;113.40;46.92;;;;;;;5.38;77.21;99690.63;5048398;28;20061;-61
2021/11/02 09:56:02;;;;;;;116.65;48.30;;;;;;;5.41;77.38;99685.00;5046625;28;20045;-61
2021/11/02 09:58:51;;;;;;;118.80;49.85;;;;;;;5.60;76.86;99690.50;5045244;28;20044;-62
2021/11/02 10:01:30;;;;;;;108.35;45.85;;;;;;;5.76;76.05;99686.69;5039483;28;20060;-62
2021/11/02 10:04:14;;;;;;;115.15;46.47;;;;;;;5.77;75.23;99685.72;5045913;28;20451;-64
2021/11/02 10:06:56;;;;;;;109.22;46.60;;;;;;;5.66;76.44;99687.09;5045993;28;20053;-64
2021/11/02 10:09:38;;;;;;;112.20;45.95;;;;;;;5.66;76.13;99682.63;5042463;28;20076;-64
2021/11/02 10:12:29;;;;;;;114.00;47.67;;;;;;;5.80;75.50;99685.31;5042835;28;20045;-65
2021/11/02 10:15:01;;;;;;;116.63;45.85;;;;;;;5.88;75.41;99683.31;5045455;28;20064;-64
2021/11/02 10:18:07;;;;;;;103.47;44.28;;;;;;;5.82;75.29;99688.53;5038851;28;20041;-61
2021/11/02 10:20:54;;;;;;;107.60;46.20;;;;;;;5.88;75.71;99671.94;5046153;28;20061;-62
2021/11/02 10:23:51;;;;;;;102.53;45.28;;;;;;;6.00;74.91;99678.31;5047642;28;20049;-62
2021/11/02 10:26:41;;;;;;;96.30;44.38;;;;;;;6.01;74.90;99664.13;5046816;28;20041;-62
2021/11/02 10:29:27;;;;;;;;;;;;;;;5.87;74.23;99673.78;5049728;28;20041;-62
2021/11/02 10:32:09;;;;;;;105.07;44.95;;;;;;;5.64;74.69;99671.50;5048038;28;19931;-62
2021/11/02 10:34:41;;;;;;;110.07;45.35;;;;;;;5.52;75.14;99667.81;5046898;28;20044;-63
2021/11/02 10:37:24;;;;;;;141.35;58.75;;;;;;;5.46;75.81;99656.28;5048210;28;20048;-63
2021/11/02 10:40:10;;;;;;;120.13;50.42;;;;;;;5.43;75.54;99661.91;5045263;28;20041;-64
2021/11/02 10:42:48;;;;;;;115.95;48.72;;;;;;;5.33;76.55;99660.69;5047339;28;20048;-64
2021/11/02 10:45:16;;;;;;;119.95;52.20;;;;;;;5.28;76.43;99649.94;5025520;28;20396;-66
2021/11/02 10:47:48;;;;;;;105.20;45.47;;;;;;;5.29;76.05;99651.56;5025363;28;20530;-66
2021/11/02 10:50:15;;;;;;;103.57;45.17;;;;;;;5.18;75.78;99643.25;5026266;28;20044;-63
2021/11/02 10:52:41;;;;;;;115.53;45.90;;;;;;;5.14;76.85;99657.75;5025384;28;20098;-65
2021/11/02 10:55:07;;;;;;;124.38;49.35;;;;;;;5.14;77.14;99649.06;5045286;28;20044;-64
2021/11/02 10:57:42;;;;;;;117.25;51.63;;;;;;;5.09;76.97;99641.78;5046342;28;20037;-66
2021/11/02 11:00:12;;;;;;;109.75;47.35;;;;;;;5.09;76.32;99649.66;5045619;28;20608;-65
2021/11/02 11:02:43;;;;;;;113.63;49.95;;;;;;;5.10;76.30;99650.47;5047233;28;20056;-64
2021/11/02 11:05:09;;;;;;;120.93;52.17;;;;;;;5.02;76.95;99643.56;5049503;28;20040;-65
2021/11/02 11:07:40;;;;;;;110.90;49.28;;;;;;;4.96;76.66;99646.97;5049772;28;20049;-62
2021/11/02 11:10:09;;;;;;;117.63;44.22;;;;;;;4.86;76.46;99644.69;5049316;28;20123;-63
2021/11/02 11:12:56;;;;;;;103.57;44.63;;;;;;;4.74;77.59;99648.88;5048780;28;20049;-63
2021/11/02 11:15:25;;;;;;;111.03;47.60;;;;;;;4.72;77.64;99645.63;5047310;28;20188;-65
2021/11/02 11:17:56;;;;;;;99.63;45.00;;;;;;;4.74;77.71;99654.13;5030467;28;20063;-62
2021/11/02 11:20:23;;;;;;;96.07;43.10;;;;;;;4.72;77.51;99653.50;5038046;28;20408;-61
2021/11/02 11:22:51;;;;;;;98.43;42.03;;;;;;;4.67;77.24;99656.69;5028746;28;20060;-62
2021/11/02 11:25:22;;;;;;;97.95;40.65;;;;;;;4.69;77.35;99652.06;5045604;28;20494;-62
2021/11/02 11:27:56;;;;;;;98.65;41.55;;;;;;;4.77;77.14;99657.16;5048738;28;20154;-61
2021/11/02 11:30:27;;;;;;;109.95;49.50;;;;;;;4.88;77.46;99655.00;5045185;28;20620;-63
2021/11/02 11:32:53;;;;;;;115.18;50.28;;;;;;;4.99;76.51;99654.44;5047044;28;20060;-62
2021/11/02 11:35:19;;;;;;;98.03;43.83;;;;;;;4.94;76.32;99655.06;5048621;28;20033;-62
2021/11/02 11:37:50;;;;;;;101.55;43.65;;;;;;;4.91;76.86;99659.84;5048161;28;20507;-63
2021/11/02 11:40:19;;;;;;;99.80;46.28;;;;;;;4.90;76.87;99653.00;5046563;28;20045;-62
2021/11/02 11:42:47;;;;;;;103.60;46.22;;;;;;;4.88;77.27;99655.00;5046309;28;20041;-63
2021/11/02 11:45:19;;;;;;;106.05;45.50;;;;;;;4.82;77.50;99659.19;5048259;28;20035;-65
2021/11/02 11:47:45;;;;;;;107.10;47.53;;;;;;;4.85;77.14;99658.81;5047713;28;20045;-62
2021/11/02 11:50:21;;;;;;;109.25;46.38;;;;;;;4.83;76.56;99655.59;5044578;28;20045;-62
2021/11/02 11:52:50;;;;;;;92.47;40.83;;;;;;;4.80;77.26;99652.53;5046745;28;20045;-62
2021/11/02 11:55:22;;;;;;;99.55;44.40;;;;;;;4.75;77.45;99653.91;5045768;28;20060;-62
2021/11/02 11:58:04;;;;;;;95.63;42.17;;;;;;;4.73;76.88;99660.34;5049011;28;20123;-62
2021/11/02 12:00:31;;;;;;;95.97;38.83;;;;;;;4.66;76.93;99657.69;5048364;28;20090;-62
2021/11/02 12:02:58;;;;;;;91.85;40.40;;;;;;;4.52;78.30;99655.97;5048270;28;20127;-65
2021/11/02 12:05:24;;;;;;;90.65;39.38;;;;;;;4.48;77.82;99652.94;5046497;28;20049;-64
2021/11/02 12:08:07;;;;;;;97.35;40.97;;;;;;;4.33;78.05;99653.03;5049690;28;20425;-65
2021/11/02 12:10:37;;;;;;;89.65;40.45;;;;;;;4.33;78.71;99649.59;5052191;28;20057;-63
2021/11/02 12:13:08;;;;;;;102.18;42.30;;;;;;;4.24;79.26;99651.53;5049823;28;20040;-64
2021/11/02 12:16:14;;;;;;;101.13;41.20;;;;;;;4.29;78.83;99646.53;5050113;28;20048;-64
2021/11/02 12:18:42;;;;;;;100.13;40.70;;;;;;;4.29;79.38;99637.84;5048876;28;20045;-64
2021/11/02 12:21:13;;;;;;;96.97;40.38;;;;;;;4.26;78.65;99641.66;5049908;28;20095;-66
2021/11/02 12:23:41;;;;;;;92.43;40.63;;;;;;;4.18;79.57;99643.63;5049191;28;20041;-64
2021/11/02 12:26:08;;;;;;;101.05;41.92;;;;;;;4.22;78.88;99643.03;5051965;28;20048;-64
2021/11/02 12:28:45;;;;;;;101.30;42.72;;;;;;;4.30;79.27;99656.03;5050161;28;20041;-65
2021/11/02 12:31:13;;;;;;;91.47;40.90;;;;;;;4.25;79.52;99647.91;5050448;28;20045;-67
2021/11/02 12:33:45;;;;;;;102.88;43.08;;;;;;;4.10;79.20;99637.50;5048317;28;20242;-65
2021/11/02 12:36:18;;;;;;;103.18;42.30;;;;;;;4.08;79.74;99644.72;5050012;28;20037;-65
2021/11/02 12:38:45;;;;;;;97.95;43.42;;;;;;;4.12;79.91;99645.19;5050496;28;20494;-61
2021/11/02 12:41:15;;;;;;;107.18;42.20;;;;;;;4.13;79.56;99641.56;5049955;28;20143;-62
2021/11/02 12:43:41;;;;;;;113.63;43.67;;;;;;;4.09;79.82;99646.38;5049805;28;20123;-62
2021/11/02 12:46:09;;;;;;;103.78;42.55;;;;;;;4.09;79.67;99646.38;5048228;28;20143;-61
2021/11/02 12:48:37;;;;;;;106.45;44.47;;;;;;;4.04;79.96;99643.50;5048332;28;20478;-64
2021/11/02 12:51:05;;;;;;;109.22;43.30;;;;;;;3.98;80.35;99646.88;5051632;28;20498;-64
2021/11/02 12:53:34;;;;;;;109.82;43.95;;;;;;;4.05;80.80;99641.69;5049380;28;20053;-64
2021/11/02 12:56:15;;;;;;;107.90;42.60;;;;;;;4.10;79.70;99642.75;5049402;28;20406;-62
2021/11/02 12:58:41;;;;;;;106.82;44.50;;;;;;;4.14;79.90;99645.00;5049235;28;20068;-64
2021/11/02 13:01:08;;;;;;;110.57;42.33;;;;;;;4.02;80.62;99639.44;5048989;28;20136;-63
2021/11/02 13:03:36;;;;;;;120.47;46.42;;;;;;;3.95;80.96;99641.19;5031153;28;20507;-65
2021/11/02 13:06:08;;;;;;;115.97;43.55;;;;;;;3.97;80.44;99633.94;5050058;28;20071;-64
2021/11/02 13:08:52;;;;;;;;;;;;;;;3.89;80.48;99637.53;5050707;28;20052;-63
2021/11/02 13:11:21;;;;;;;114.72;43.78;;;;;;;3.86;81.05;99635.28;5049199;28;19972;-62
2021/11/02 13:14:17;;;;;;;118.45;46.38;;;;;;;3.86;81.66;99646.56;5048408;28;20041;-64
2021/11/02 13:16:52;;;;;;;118.30;45.47;;;;;;;3.91;81.34;99639.94;5048021;28;20048;-65
2021/11/02 13:19:19;;;;;;;116.72;45.72;;;;;;;3.89;81.08;99634.91;5047302;28;20123;-64
2021/11/02 13:21:45;;;;;;;112.60;42.72;;;;;;;3.93;81.02;99641.38;5049095;28;20059;-64
2021/11/02 13:24:16;;;;;;;110.15;40.20;;;;;;;3.94;81.06;99642.19;5048681;28;20037;-66
2021/11/02 13:26:45;;;;;;;115.53;43.15;;;;;;;3.89;81.49;99645.38;5048929;28;20423;-66
2021/11/02 13:29:20;;;;;;;107.25;41.78;;;;;;;3.96;81.12;99645.44;5048696;28;20105;-64
2021/11/02 13:31:48;;;;;;;110.93;43.13;;;;;;;3.93;80.76;99644.00;5031828;28;20128;-65
2021/11/02 13:34:33;;;;;;;129.95;43.90;;;;;;;3.84;81.48;99650.38;5048864;28;20407;-61
2021/11/02 13:37:15;;;;;;;126.78;41.03;;;;;;;3.75;81.93;99648.88;5047192;28;20055;-66
2021/11/02 13:40:01;;;;;;;125.13;41.67;;;;;;;3.69;81.88;99642.56;5048957;28;20136;-62
2021/11/02 13:42:51;;;;;;;122.72;44.17;;;;;;;3.75;81.73;99643.63;5047145;28;20458;-62
2021/11/02 13:45:20;;;;;;;121.20;44.65;;;;;;;3.75;81.98;99638.38;5047772;28;20039;-63
2021/11/02 13:47:47;;;;;;;108.93;42.57;;;;;;;3.71;82.24;99647.63;5032423;28;20529;-64
2021/11/02 13:50:14;;;;;;;100.93;39.38;;;;;;;3.74;82.18;99644.63;5049495;28;20295;-60
2021/11/02 13:52:41;;;;;;;136.02;40.45;;;;;;;3.71;81.66;99645.00;5049024;28;20417;-65
2021/11/02 13:55:07;;;;;;;116.85;39.92;;;;;;;3.76;81.83;99650.50;5048020;28;20220;-63
2021/11/02 13:57:33;;;;;;;113.72;39.75;;;;;;;3.77;81.69;99641.63;5046434;28;20033;-62
2021/11/02 13:59:59;;;;;;;98.57;39.05;;;;;;;3.78;81.55;99643.25;5047263;28;20040;-64
2021/11/02 14:02:27;;;;;;;105.88;38.80;;;;;;;3.70;82.24;99640.75;5048472;28;20039;-63
2021/11/02 14:04:54;;;;;;;109.70;37.22;;;;;;;3.57;82.57;99637.00;5045944;28;20537;-64
2021/11/02 14:07:26;;;;;;;103.78;38.90;;;;;;;3.55;82.96;99633.75;5044766;28;20047;-65
2021/11/02 14:09:55;;;;;;;116.90;39.13;;;;;;;3.54;82.58;99634.75;5045589;28;20593;-63
2021/11/02 14:12:22;;;;;;;132.38;41.17;;;;;;;3.50;83.10;99640.53;5043244;28;20431;-63
2021/11/02 14:14:48;;;;;;;111.55;37.00;;;;;;;3.50;82.77;99644.00;5045266;28;20113;-63
2021/11/02 14:17:15;;;;;;;115.18;37.30;;;;;;;3.40;83.11;99641.63;5045072;28;20422;-65
2021/11/02 14:19:43;;;;;;;136.82;38.33;;;;;;;3.34;83.03;99636.34;5047659;28;20478;-63
2021/11/02 14:22:13;;;;;;;146.10;38.60;;;;;;;3.36;83.38;99639.59;5049788;28;20529;-65
2021/11/02 14:24:46;;;;;;;98.90;35.58;;;;;;;3.34;83.48;99645.00;5051390;28;20056;-62
2021/11/02 14:27:19;;;;;;;104.72;36.20;;;;;;;3.31;83.61;99639.31;5049665;28;20228;-64
2021/11/02 14:30:21;;;;;;;118.32;35.92;;;;;;;3.24;83.40;99622.72;5049778;28;20040;-63
2021/11/02 14:32:54;;;;;;;113.53;33.15;;;;;;;3.31;83.58;99636.69;5050896;28;20029;-66
2021/11/02 14:35:41;;;;;;;138.35;37.70;;;;;;;3.27;83.01;99641.50;5051309;28;20052;-66
2021/11/02 14:38:11;;;;;;;103.78;33.00;;;;;;;3.29;83.64;99633.44;5048185;28;20091;-67
2021/11/02 14:40:38;;;;;;;107.38;37.65;;;;;;;3.28;83.67;99637.88;5048623;28;20041;-66
2021/11/02 14:43:13;;;;;;;120.70;37.10;;;;;;;3.29;83.68;99641.31;5050502;28;20040;-65
2021/11/02 14:46:18;;;;;;;101.68;36.10;;;;;;;3.30;83.67;99638.50;5047313;28;20047;-66
2021/11/02 14:48:49;;;;;;;113.07;34.42;;;;;;;3.30;83.79;99638.50;5050673;28;20045;-63
2021/11/02 14:51:21;;;;;;;134.30;36.83;;;;;;;3.26;83.40;99639.06;5048765;28;20045;-64
2021/11/02 14:53:47;;;;;;;157.88;36.58;;;;;;;3.23;83.56;99634.19;5050764;28;20045;-67
2021/11/02 14:56:27;;;;;;;122.80;35.45;;;;;;;3.27;83.82;99638.06;5051189;28;20449;-65
2021/11/02 14:58:55;;;;;;;127.53;34.25;;;;;;;3.25;83.50;99635.63;5050925;28;20436;-65
2021/11/02 15:01:47;;;;;;;150.65;35.85;;;;;;;3.21;83.79;99623.06;5050809;28;20123;-61
2021/11/02 15:04:17;;;;;;;152.45;36.58;;;;;;;3.06;83.95;99616.06;5050651;28;20048;-62
2021/11/02 15:07:04;;;;;;;129.48;32.30;;;;;;;3.01;84.30;99623.66;5051096;28;20052;-61
2021/11/02 15:09:37;;;;;;;121.97;34.15;;;;;;;2.95;84.36;99614.72;5045215;28;20049;-63
2021/11/02 15:12:05;;;;;;;156.35;33.85;;;;;;;2.89;84.19;99599.75;5050053;28;20044;-63
2021/11/02 15:14:34;;;;;;;137.00;35.45;;;;;;;2.94;84.47;99609.66;5047424;28;20041;-63
2021/11/02 15:17:11;;;;;;;128.20;34.67;;;;;;;2.94;84.44;99625.34;5050059;28;20043;-62
2021/11/02 15:19:39;;;;;;;136.32;34.45;;;;;;;2.96;84.23;99616.34;5047465;28;20041;-63
2021/11/02 15:22:06;;;;;;;137.00;33.38;;;;;;;2.91;84.46;99620.47;5050322;28;20123;-61
2021/11/02 15:24:41;;;;;;;145.95;34.45;;;;;;;2.81;84.99;99610.28;5047115;28;20049;-63
2021/11/02 15:27:19;;;;;;;147.50;31.83;;;;;;;2.78;85.08;99615.09;5048732;28;20148;-63
2021/11/02 15:29:49;;;;;;;125.03;32.75;;;;;;;2.85;84.97;99616.78;5049234;28;20037;-63
2021/11/02 15:32:24;;;;;;;124.60;32.22;;;;;;;2.87;84.85;99614.00;5053275;28;20410;-63
2021/11/02 15:34:54;;;;;;;151.88;33.90;;;;;;;2.91;84.53;99618.72;5052854;28;20049;-64
2021/11/02 15:37:23;;;;;;;126.85;31.80;;;;;;;2.82;84.67;99604.06;5053034;28;20049;-64
2021/11/02 15:39:58;;;;;;;145.75;33.78;;;;;;;2.83;84.55;99610.13;5053114;28;20051;-65
2021/11/02 15:42:28;;;;;;;148.35;30.85;;;;;;;2.79;84.72;99611.47;5053634;28;20172;-63
2021/11/02 15:44:56;;;;;;;172.27;35.92;;;;;;;2.72;85.15;99604.34;5053709;28;20398;-61
2021/11/02 15:47:24;;;;;;;124.75;32.70;;;;;;;2.71;84.93;99615.81;5053602;28;20657;-63
2021/11/02 15:49:55;;;;;;;118.97;32.47;;;;;;;2.65;85.05;99613.94;5053634;28;20076;-61
2021/11/02 15:52:22;;;;;;;116.25;31.85;;;;;;;2.63;85.17;99610.66;5053214;28;20374;-61
2021/11/02 15:54:48;;;;;;;172.95;32.33;;;;;;;2.60;85.35;99610.22;5049130;28;20041;-62
2021/11/02 15:57:14;;;;;;;103.07;31.45;;;;;;;2.57;85.38;99610.56;5053399;28;20040;-66
2021/11/02 15:59:40;;;;;;;101.40;30.58;;;;;;;2.64;85.07;99614.09;5052638;28;20110;-63
2021/11/02 16:02:06;;;;;;;79.90;28.08;;;;;;;2.59;85.18;99614.66;5052620;28;20080;-64
2021/11/02 16:04:31;;;;;;;127.90;29.48;;;;;;;2.49;85.37;99624.53;5052027;28;20498;-59
2021/11/02 16:07:02;;;;;;;92.60;27.65;;;;;;;2.49;85.61;99616.69;5052895;28;20402;-70
2021/11/02 16:09:46;;;;;;;73.63;22.92;;;;;;;2.41;85.70;99624.63;5050412;28;20052;-64
2021/11/02 16:12:26;;;;;;;117.47;32.75;;;;;;;2.48;85.78;99628.16;5051345;28;20041;-66
2021/11/02 16:15:14;;;;;;;96.18;29.15;;;;;;;2.48;85.15;99626.34;5053025;28;20047;-62
2021/11/02 16:17:55;;;;;;;77.10;27.33;;;;;;;2.45;84.96;99621.47;5052951;28;20516;-62
2021/11/02 16:20:27;;;;;;;88.63;25.80;;;;;;;2.48;84.99;99620.31;5052871;28;20053;-62
2021/11/02 16:22:57;;;;;;;74.80;27.55;;;;;;;2.40;85.12;99621.19;5052565;28;20044;-63
2021/11/02 16:25:23;;;;;;;75.60;28.02;;;;;;;2.36;85.62;99614.72;5039929;28;20399;-62
2021/11/02 16:27:58;;;;;;;84.53;27.63;;;;;;;2.38;85.46;99617.97;5052822;28;20091;-61
2021/11/02 16:30:31;;;;;;;65.40;24.00;;;;;;;2.36;85.27;99611.28;5053144;28;20124;-64
2021/11/02 16:32:57;;;;;;;80.82;28.67;;;;;;;2.41;85.25;99620.22;5053040;28;20044;-63
2021/11/02 16:35:37;;;;;;;88.40;28.00;;;;;;;2.38;85.22;99617.13;5053004;28;21022;-65
2021/11/02 16:38:27;;;;;;;83.35;26.60;;;;;;;2.30;85.40;99625.09;5050853;28;20490;-65
2021/11/02 16:41:01;;;;;;;87.22;27.58;;;;;;;2.19;85.77;99616.66;5050779;28;20536;-63
2021/11/02 16:44:10;;;;;;;75.63;25.15;;;;;;;2.16;85.88;99632.69;5049900;28;20052;-62
2021/11/02 16:46:47;;;;;;;84.43;28.30;;;;;;;2.31;85.78;99611.00;5052377;28;20416;-62